Time;durP1;ratioP1;P1;durP2;ratioP2;P2;SDS_P1;SDS_P2;PMS_P1;PMS_P2;Temp;Humidity;BMP_temperature;BMP_pressure;BME280_temperature;BME280_humidity;BME280_pressure;Samples;Min_cycle;Max_cycle;Signal;HPM_P1;HPM_P2
2023/06/02 00:01:00;;;;;;;1.17;0.30;;;;;;;;;;2101777;28;20040;-62
2023/06/02 00:02:21;;;;;;;1.58;0.20;;;;;;;;;;2102276;28;20449;-62
2023/06/02 00:03:41;;;;;;;4.22;0.30;;;;;;;;;;2104737;28;20345;-61
2023/06/02 00:05:01;;;;;;;0.73;0.20;;;;;;;;;;2105321;28;20505;-62
2023/06/02 00:06:20;;;;;;;0.60;0.30;;;;;;;;;;2102439;28;20040;-62
2023/06/02 00:07:39;;;;;;;1.10;0.20;;;;;;;;;;2105566;28;20028;-61
2023/06/02 00:08:58;;;;;;;1.35;0.30;;;;;;;;;;2105488;28;20024;-61
2023/06/02 00:10:17;;;;;;;0.43;0.20;;;;;;;;;;2104173;28;20036;-61
2023/06/02 00:11:36;;;;;;;0.45;0.40;;;;;;;;;;2104266;28;20509;-62
2023/06/02 00:12:55;;;;;;;0.43;0.30;;;;;;;;;;2104406;28;20523;-61
2023/06/02 00:14:14;;;;;;;2.15;0.40;;;;;;;;;;2104553;28;20438;-61
2023/06/02 00:15:34;;;;;;;2.35;0.30;;;;;;;;;;2102331;28;20013;-61
2023/06/02 00:16:55;;;;;;;0.75;0.50;;;;;;;;;;2106384;28;20028;-61
2023/06/02 00:18:14;;;;;;;1.23;0.22;;;;;;;;;;2104146;28;20032;-61
2023/06/02 00:19:33;;;;;;;2.50;0.13;;;;;;;;;;2104675;28;20024;-61
2023/06/02 00:20:53;;;;;;;0.55;0.30;;;;;;;;;;2104451;28;20024;-61
2023/06/02 00:22:13;;;;;;;0.50;0.20;;;;;;;;;;2105158;28;20485;-61
2023/06/02 00:23:32;;;;;;;1.25;0.25;;;;;;;;;;2104392;28;20044;-62
2023/06/02 00:24:52;;;;;;;0.08;0.08;;;;;;;;;;2103332;28;20492;-62
2023/06/02 00:26:11;;;;;;;0.57;0.20;;;;;;;;;;2102871;28;20067;-61
2023/06/02 00:27:30;;;;;;;2.30;0.20;;;;;;;;;;2105820;28;20476;-61
2023/06/02 00:28:49;;;;;;;0.25;0.05;;;;;;;;;;2102558;28;20480;-62
2023/06/02 00:30:08;;;;;;;0.20;0.15;;;;;;;;;;2100918;28;20028;-61
2023/06/02 00:31:27;;;;;;;1.60;0.20;;;;;;;;;;2104100;28;20028;-61
2023/06/02 00:32:46;;;;;;;0.20;0.20;;;;;;;;;;2104745;28;20036;-61
2023/06/02 00:34:05;;;;;;;0.30;0.10;;;;;;;;;;2104354;28;20043;-60
2023/06/02 00:35:25;;;;;;;0.28;0.10;;;;;;;;;;2102411;28;20032;-61
2023/06/02 00:36:43;;;;;;;2.88;0.30;;;;;;;;;;2104327;28;20040;-61
2023/06/02 00:38:04;;;;;;;0.35;0.28;;;;;;;;;;2105033;28;20035;-61
2023/06/02 00:39:23;;;;;;;0.73;0.40;;;;;;;;;;2102309;28;20024;-61
2023/06/02 00:40:42;;;;;;;4.25;0.50;;;;;;;;;;2102510;28;20436;-61
2023/06/02 00:42:01;;;;;;;0.10;0.10;;;;;;;;;;2099236;28;20400;-63
2023/06/02 00:43:21;;;;;;;1.17;0.20;;;;;;;;;;2102681;28;20039;-60
2023/06/02 00:44:39;;;;;;;0.10;0.10;;;;;;;;;;2103966;28;20024;-63
2023/06/02 00:45:58;;;;;;;1.17;0.10;;;;;;;;;;2102991;28;20028;-62
2023/06/02 00:47:17;;;;;;;0.10;0.10;;;;;;;;;;2103430;28;20028;-61
2023/06/02 00:48:36;;;;;;;1.30;0.20;;;;;;;;;;2103843;28;20159;-61
2023/06/02 00:49:55;;;;;;;0.20;0.15;;;;;;;;;;2104053;28;20036;-61
2023/06/02 00:51:15;;;;;;;0.22;0.17;;;;;;;;;;2102357;28;20039;-61
2023/06/02 00:52:33;;;;;;;0.88;0.20;;;;;;;;;;2104550;28;20439;-61
2023/06/02 00:53:52;;;;;;;1.20;0.40;;;;;;;;;;2103042;28;20028;-61
2023/06/02 00:55:11;;;;;;;2.88;0.20;;;;;;;;;;2105659;28;20103;-61
2023/06/02 00:56:31;;;;;;;0.98;0.38;;;;;;;;;;2104886;28;20032;-62
2023/06/02 00:57:51;;;;;;;1.88;0.20;;;;;;;;;;2102789;28;20043;-61
2023/06/02 00:59:10;;;;;;;2.63;0.30;;;;;;;;;;2104641;28;20028;-62
2023/06/02 01:00:33;;;;;;;2.10;0.30;;;;;;;;;;2101917;28;20378;-62
2023/06/02 01:01:53;;;;;;;2.33;0.20;;;;;;;;;;2104686;28;20114;-61
2023/06/02 01:03:14;;;;;;;8.40;0.40;;;;;;;;;;2103932;28;20503;-60
2023/06/02 01:04:33;;;;;;;3.35;0.20;;;;;;;;;;2104930;28;20481;-61
2023/06/02 01:05:53;;;;;;;0.43;0.22;;;;;;;;;;2103482;28;20114;-61
2023/06/02 01:07:13;;;;;;;2.40;0.30;;;;;;;;;;2105019;28;20503;-60
2023/06/02 01:08:32;;;;;;;1.75;0.30;;;;;;;;;;2104489;28;20039;-61
2023/06/02 01:09:56;;;;;;;4.88;0.20;;;;;;;;;;2104087;28;20024;-62
2023/06/02 01:11:15;;;;;;;3.65;0.30;;;;;;;;;;2102766;28;20024;-61
2023/06/02 01:12:34;;;;;;;1.33;0.10;;;;;;;;;;2104816;28;20071;-62
2023/06/02 01:13:54;;;;;;;1.75;0.10;;;;;;;;;;2104720;28;20458;-65
2023/06/02 01:15:13;;;;;;;3.60;0.20;;;;;;;;;;2103499;28;20028;-62
2023/06/02 01:16:32;;;;;;;4.05;0.40;;;;;;;;;;2104582;28;20119;-61
2023/06/02 01:17:52;;;;;;;2.22;0.60;;;;;;;;;;2104536;28;20032;-61
2023/06/02 01:19:13;;;;;;;1.05;0.30;;;;;;;;;;2099016;28;20020;-61
2023/06/02 01:20:32;;;;;;;1.25;0.15;;;;;;;;;;2100184;28;20028;-61
2023/06/02 01:21:59;;;;;;;0.35;0.30;;;;;;;;;;2104818;28;20024;-61
2023/06/02 01:23:32;;;;;;;2.05;0.10;;;;;;;;;;2103523;28;20032;-61
2023/06/02 01:24:53;;;;;;;2.42;0.15;;;;;;;;;;2102509;28;20448;-61
2023/06/02 01:26:12;;;;;;;2.00;0.28;;;;;;;;;;2102564;28;20451;-61
2023/06/02 01:27:31;;;;;;;1.85;0.10;;;;;;;;;;2104967;28;20536;-61
2023/06/02 01:28:50;;;;;;;1.90;0.30;;;;;;;;;;2102799;28;20028;-64
2023/06/02 01:30:09;;;;;;;0.43;0.15;;;;;;;;;;2103049;28;20036;-61
2023/06/02 01:31:34;;;;;;;1.45;0.15;;;;;;;;;;2103109;28;20032;-64
2023/06/02 01:32:56;;;;;;;1.30;0.15;;;;;;;;;;2104572;28;20031;-61
2023/06/02 01:34:20;;;;;;;1.67;0.20;;;;;;;;;;2104068;28;20040;-61
2023/06/02 01:35:44;;;;;;;0.10;0.10;;;;;;;;;;2103487;28;20040;-61
2023/06/02 01:37:03;;;;;;;1.92;0.17;;;;;;;;;;2102830;28;20024;-61
2023/06/02 01:38:23;;;;;;;2.97;0.17;;;;;;;;;;2104666;28;20019;-61
2023/06/02 01:39:42;;;;;;;0.47;0.10;;;;;;;;;;2098009;28;20772;-61
2023/06/02 01:41:02;;;;;;;1.27;0.17;;;;;;;;;;2101950;28;20389;-62
2023/06/02 01:42:22;;;;;;;0.40;0.10;;;;;;;;;;2102612;28;20032;-62
2023/06/02 01:43:41;;;;;;;0.32;0.00;;;;;;;;;;2100693;28;20470;-62
2023/06/02 01:45:02;;;;;;;0.30;0.10;;;;;;;;;;2105090;28;20036;-63
2023/06/02 01:46:23;;;;;;;0.47;0.10;;;;;;;;;;2104498;28;20024;-61
2023/06/02 01:47:42;;;;;;;0.10;0.10;;;;;;;;;;2104484;28;20024;-62
2023/06/02 01:49:01;;;;;;;1.00;0.30;;;;;;;;;;2105233;28;20112;-62
2023/06/02 01:50:22;;;;;;;2.38;0.30;;;;;;;;;;2100953;28;20036;-61
2023/06/02 01:51:42;;;;;;;3.65;0.40;;;;;;;;;;2104435;28;20036;-61
2023/06/02 01:53:01;;;;;;;2.70;0.10;;;;;;;;;;2105698;28;20485;-61
2023/06/02 01:54:21;;;;;;;0.10;0.10;;;;;;;;;;2103009;28;20024;-61
2023/06/02 01:55:40;;;;;;;0.32;0.10;;;;;;;;;;2101266;28;20418;-61
2023/06/02 01:56:59;;;;;;;2.38;0.17;;;;;;;;;;2104897;28;20628;-61
2023/06/02 01:58:19;;;;;;;0.50;0.10;;;;;;;;;;2105583;28;20063;-60
2023/06/02 01:59:38;;;;;;;0.70;0.20;;;;;;;;;;2102132;28;20033;-60
2023/06/02 02:00:57;;;;;;;2.22;0.22;;;;;;;;;;2100516;28;20079;-61
2023/06/02 02:02:16;;;;;;;5.88;0.30;;;;;;;;;;2102249;28;20020;-61
2023/06/02 02:03:37;;;;;;;0.10;0.10;;;;;;;;;;2104009;28;20036;-60
2023/06/02 02:04:56;;;;;;;0.52;0.17;;;;;;;;;;2103905;28;20036;-61
2023/06/02 02:06:14;;;;;;;2.78;0.20;;;;;;;;;;2103283;28;20036;-61
2023/06/02 02:07:35;;;;;;;1.33;0.10;;;;;;;;;;2104450;28;20389;-61
2023/06/02 02:08:53;;;;;;;0.75;0.10;;;;;;;;;;2103525;28;20027;-61
2023/06/02 02:10:12;;;;;;;1.75;0.13;;;;;;;;;;2103651;28;20489;-61
2023/06/02 02:11:31;;;;;;;0.50;0.17;;;;;;;;;;2104447;28;20032;-62
2023/06/02 02:12:50;;;;;;;0.20;0.10;;;;;;;;;;2103694;28;20052;-61
2023/06/02 02:14:13;;;;;;;2.38;0.20;;;;;;;;;;2103009;28;20040;-62
2023/06/02 02:15:32;;;;;;;1.02;0.10;;;;;;;;;;2105127;28;20028;-60
2023/06/02 02:16:51;;;;;;;0.50;0.20;;;;;;;;;;2106904;28;20028;-61
2023/06/02 02:18:10;;;;;;;0.20;0.20;;;;;;;;;;2104114;28;20066;-61
2023/06/02 02:19:31;;;;;;;1.02;0.10;;;;;;;;;;2103535;28;20027;-60
2023/06/02 02:20:50;;;;;;;2.30;0.10;;;;;;;;;;2102623;28;20024;-61
2023/06/02 02:22:09;;;;;;;0.10;0.10;;;;;;;;;;2102716;28;20021;-61
2023/06/02 02:23:28;;;;;;;0.65;0.10;;;;;;;;;;2103220;28;20477;-61
2023/06/02 02:24:46;;;;;;;1.40;0.10;;;;;;;;;;2103347;28;20043;-61
2023/06/02 02:26:06;;;;;;;0.75;0.20;;;;;;;;;;2103398;28;20036;-61
2023/06/02 02:27:25;;;;;;;0.47;0.13;;;;;;;;;;2103182;28;20435;-61
2023/06/02 02:28:44;;;;;;;0.25;0.10;;;;;;;;;;2102006;28;20489;-66
2023/06/02 02:30:05;;;;;;;0.20;0.00;;;;;;;;;;2101034;28;20589;-62
2023/06/02 02:31:24;;;;;;;1.40;0.10;;;;;;;;;;2104304;28;20028;-61
2023/06/02 02:32:45;;;;;;;0.10;0.10;;;;;;;;;;2104230;28;20460;-61
2023/06/02 02:34:03;;;;;;;1.98;0.20;;;;;;;;;;2103135;28;20111;-61
2023/06/02 02:35:22;;;;;;;0.50;0.20;;;;;;;;;;2102542;28;20036;-60
2023/06/02 02:36:44;;;;;;;0.82;0.10;;;;;;;;;;2104051;28;20423;-61
2023/06/02 02:38:03;;;;;;;0.40;0.08;;;;;;;;;;2103802;28;20028;-61
2023/06/02 02:39:23;;;;;;;0.35;0.10;;;;;;;;;;2104733;28;20036;-61
2023/06/02 02:40:41;;;;;;;0.65;0.10;;;;;;;;;;2099000;28;20016;-61
2023/06/02 02:42:00;;;;;;;1.20;0.20;;;;;;;;;;2102397;28;20020;-61
2023/06/02 02:43:19;;;;;;;0.43;0.20;;;;;;;;;;2102819;28;20032;-61
2023/06/02 02:44:39;;;;;;;3.30;0.10;;;;;;;;;;2103022;28;20028;-59
2023/06/02 02:45:58;;;;;;;1.42;0.10;;;;;;;;;;2100135;28;20035;-61
2023/06/02 02:47:17;;;;;;;0.10;0.10;;;;;;;;;;2104529;28;20020;-62
2023/06/02 02:48:36;;;;;;;1.38;0.10;;;;;;;;;;2102758;28;20059;-60
2023/06/02 02:49:55;;;;;;;1.15;0.20;;;;;;;;;;2104255;28;20427;-62
2023/06/02 02:51:14;;;;;;;0.20;0.00;;;;;;;;;;2102028;28;20118;-61
2023/06/02 02:52:32;;;;;;;1.02;0.25;;;;;;;;;;2103621;28;20484;-61
2023/06/02 02:53:51;;;;;;;0.10;0.10;;;;;;;;;;2102749;28;20028;-60
2023/06/02 02:55:10;;;;;;;0.25;0.20;;;;;;;;;;2104649;28;20107;-61
2023/06/02 02:56:30;;;;;;;1.48;0.17;;;;;;;;;;2105741;28;20032;-61
2023/06/02 02:57:49;;;;;;;0.47;0.25;;;;;;;;;;2103082;28;20016;-60
2023/06/02 02:59:08;;;;;;;2.20;0.10;;;;;;;;;;2103379;28;20107;-61
2023/06/02 03:00:27;;;;;;;0.30;0.30;;;;;;;;;;2101077;28;20032;-61
2023/06/02 03:01:46;;;;;;;0.65;0.10;;;;;;;;;;2104916;28;20024;-61
2023/06/02 03:03:05;;;;;;;1.02;0.30;;;;;;;;;;2103960;28;20024;-62
2023/06/02 03:04:25;;;;;;;2.60;0.25;;;;;;;;;;2104476;28;20040;-61
2023/06/02 03:05:45;;;;;;;0.20;0.10;;;;;;;;;;2102096;28;20020;-61
2023/06/02 03:07:04;;;;;;;1.05;0.28;;;;;;;;;;2104557;28;20025;-61
2023/06/02 03:08:23;;;;;;;0.15;0.10;;;;;;;;;;2104211;28;20986;-61
2023/06/02 03:09:42;;;;;;;0.13;0.10;;;;;;;;;;2104494;28;20028;-61
2023/06/02 03:11:01;;;;;;;2.10;0.20;;;;;;;;;;2102910;28;20060;-62
2023/06/02 03:12:20;;;;;;;0.38;0.20;;;;;;;;;;2105243;28;20036;-61
2023/06/02 03:13:39;;;;;;;0.30;0.20;;;;;;;;;;2106508;28;20032;-61
2023/06/02 03:14:58;;;;;;;1.92;0.20;;;;;;;;;;2105820;28;20504;-61
2023/06/02 03:16:17;;;;;;;0.68;0.25;;;;;;;;;;2105328;28;20297;-60
2023/06/02 03:17:37;;;;;;;3.33;0.10;;;;;;;;;;2105705;28;20028;-61
2023/06/02 03:18:56;;;;;;;0.30;0.15;;;;;;;;;;2104757;28;20044;-61
2023/06/02 03:20:15;;;;;;;0.95;0.20;;;;;;;;;;2096742;28;20064;-60
2023/06/02 03:21:41;;;;;;;1.75;0.10;;;;;;;;;;2101371;28;20099;-61
2023/06/02 03:23:00;;;;;;;0.10;0.10;;;;;;;;;;2104820;28;20485;-60
2023/06/02 03:24:19;;;;;;;0.73;0.20;;;;;;;;;;2105957;28;20111;-61
2023/06/02 03:25:40;;;;;;;0.20;0.20;;;;;;;;;;2104211;28;20405;-61
2023/06/02 03:26:59;;;;;;;2.50;0.20;;;;;;;;;;2103070;28;20040;-61
2023/06/02 03:28:18;;;;;;;0.30;0.10;;;;;;;;;;2105306;28;20492;-61
2023/06/02 03:29:37;;;;;;;1.70;0.57;;;;;;;;;;2103564;28;20073;-61
2023/06/02 03:30:56;;;;;;;0.45;0.20;;;;;;;;;;2102594;28;20044;-61
2023/06/02 03:32:15;;;;;;;1.27;0.20;;;;;;;;;;2104923;28;20032;-61
2023/06/02 03:33:35;;;;;;;0.77;0.20;;;;;;;;;;2104310;28;20020;-60
2023/06/02 03:34:54;;;;;;;0.73;0.40;;;;;;;;;;2104484;28;20020;-61
2023/06/02 03:36:17;;;;;;;2.13;0.30;;;;;;;;;;2105914;28;20119;-61
2023/06/02 03:37:36;;;;;;;1.00;0.45;;;;;;;;;;2106815;28;20032;-61
2023/06/02 03:38:55;;;;;;;0.70;0.10;;;;;;;;;;2105673;28;20024;-61
2023/06/02 03:40:14;;;;;;;0.82;0.30;;;;;;;;;;2102901;28;22221;-60
2023/06/02 03:41:34;;;;;;;1.65;0.22;;;;;;;;;;2105938;28;20020;-60
2023/06/02 03:42:53;;;;;;;0.98;0.25;;;;;;;;;;2105136;28;20435;-61
2023/06/02 03:44:13;;;;;;;1.42;0.17;;;;;;;;;;2102549;28;20042;-63
2023/06/02 03:45:32;;;;;;;1.70;0.20;;;;;;;;;;2100802;28;20028;-60
2023/06/02 03:46:51;;;;;;;1.65;0.28;;;;;;;;;;2105491;28;20412;-60
2023/06/02 03:48:10;;;;;;;1.08;0.20;;;;;;;;;;2102640;28;20393;-61
2023/06/02 03:49:29;;;;;;;0.98;0.20;;;;;;;;;;2105193;28;20036;-61
2023/06/02 03:50:48;;;;;;;0.80;0.30;;;;;;;;;;2103190;28;20036;-61
2023/06/02 03:52:07;;;;;;;1.50;0.47;;;;;;;;;;2103210;28;20106;-61
2023/06/02 03:53:26;;;;;;;0.95;0.20;;;;;;;;;;2102130;28;20040;-61
2023/06/02 03:54:45;;;;;;;1.80;0.30;;;;;;;;;;2103148;28;20392;-61
2023/06/02 03:56:04;;;;;;;0.68;0.20;;;;;;;;;;2103508;28;20028;-61
2023/06/02 03:57:24;;;;;;;0.75;0.10;;;;;;;;;;2104015;28;20322;-61
2023/06/02 03:58:44;;;;;;;1.75;0.22;;;;;;;;;;2105340;28;20024;-61
2023/06/02 04:00:04;;;;;;;0.25;0.20;;;;;;;;;;2102414;28;20020;-61
2023/06/02 04:01:23;;;;;;;0.10;0.10;;;;;;;;;;2104967;28;20060;-61
2023/06/02 04:02:42;;;;;;;1.85;0.45;;;;;;;;;;2105184;28;20016;-62
2023/06/02 04:04:02;;;;;;;0.38;0.17;;;;;;;;;;2105020;28;20086;-61
2023/06/02 04:05:21;;;;;;;0.93;0.20;;;;;;;;;;2103419;28;20380;-61
2023/06/02 04:06:42;;;;;;;0.57;0.30;;;;;;;;;;2104563;28;20396;-61
2023/06/02 04:08:02;;;;;;;0.75;0.20;;;;;;;;;;2103379;28;20084;-61
2023/06/02 04:09:21;;;;;;;1.13;0.28;;;;;;;;;;2102448;28;20059;-62
2023/06/02 04:10:40;;;;;;;1.02;0.30;;;;;;;;;;2102461;28;20083;-62
2023/06/02 04:11:59;;;;;;;0.73;0.13;;;;;;;;;;2105583;28;20036;-62
2023/06/02 04:13:18;;;;;;;0.40;0.20;;;;;;;;;;2103960;28;20027;-61
2023/06/02 04:14:37;;;;;;;0.65;0.30;;;;;;;;;;2105087;28;20020;-61
2023/06/02 04:15:56;;;;;;;0.63;0.30;;;;;;;;;;2100620;28;20016;-61
2023/06/02 04:17:15;;;;;;;1.58;0.20;;;;;;;;;;2100417;28;20067;-62
2023/06/02 04:18:38;;;;;;;0.32;0.22;;;;;;;;;;2102904;28;20043;-61
2023/06/02 04:19:57;;;;;;;0.63;0.20;;;;;;;;;;2104907;28;20028;-61
2023/06/02 04:21:16;;;;;;;4.28;0.30;;;;;;;;;;2103605;28;20028;-61
2023/06/02 04:22:35;;;;;;;3.08;0.47;;;;;;;;;;2105217;28;20028;-61
2023/06/02 04:23:54;;;;;;;1.45;0.17;;;;;;;;;;2105491;28;20483;-61
2023/06/02 04:25:13;;;;;;;0.52;0.20;;;;;;;;;;2103238;28;20102;-61
2023/06/02 04:26:32;;;;;;;0.73;0.38;;;;;;;;;;2099638;28;20036;-61
2023/06/02 04:27:51;;;;;;;0.40;0.30;;;;;;;;;;2102312;28;20526;-61
2023/06/02 04:29:11;;;;;;;2.70;0.35;;;;;;;;;;2103557;28;20067;-61
2023/06/02 04:30:29;;;;;;;1.63;0.30;;;;;;;;;;2102452;28;20103;-62
2023/06/02 04:31:48;;;;;;;3.00;0.35;;;;;;;;;;2104740;28;20036;-62
2023/06/02 04:33:08;;;;;;;2.20;0.20;;;;;;;;;;2105923;28;20040;-62
2023/06/02 04:34:26;;;;;;;0.30;0.30;;;;;;;;;;2102760;28;20031;-61
2023/06/02 04:35:46;;;;;;;1.15;0.38;;;;;;;;;;2105860;28;20020;-62
2023/06/02 04:37:05;;;;;;;0.85;0.30;;;;;;;;;;2101301;28;20112;-61
2023/06/02 04:38:24;;;;;;;0.35;0.15;;;;;;;;;;2103542;28;20381;-59
2023/06/02 04:39:47;;;;;;;0.90;0.30;;;;;;;;;;2103416;28;20498;-61
2023/06/02 04:41:07;;;;;;;3.53;0.45;;;;;;;;;;2102933;28;20028;-61
2023/06/02 04:42:26;;;;;;;2.78;0.45;;;;;;;;;;2105218;28;20560;-61
2023/06/02 04:43:45;;;;;;;0.80;0.20;;;;;;;;;;2101460;28;20135;-62
2023/06/02 04:45:11;;;;;;;1.08;0.25;;;;;;;;;;2101102;28;20032;-64
2023/06/02 04:46:30;;;;;;;3.25;0.40;;;;;;;;;;2105266;28;20028;-63
2023/06/02 04:47:49;;;;;;;0.57;0.20;;;;;;;;;;2105120;28;20024;-63
2023/06/02 04:49:09;;;;;;;1.92;0.40;;;;;;;;;;2102197;28;20455;-64
2023/06/02 04:50:28;;;;;;;2.92;0.38;;;;;;;;;;2100712;28;20414;-63
2023/06/02 04:51:47;;;;;;;1.40;0.20;;;;;;;;;;2104991;28;20467;-64
2023/06/02 04:53:06;;;;;;;3.53;0.40;;;;;;;;;;2103071;28;20032;-63
2023/06/02 04:54:25;;;;;;;1.75;0.40;;;;;;;;;;2101531;28;20028;-63
2023/06/02 04:55:45;;;;;;;0.60;0.20;;;;;;;;;;2101385;28;20040;-62
2023/06/02 04:57:07;;;;;;;1.10;0.38;;;;;;;;;;2103344;28;20024;-63
2023/06/02 04:58:26;;;;;;;1.92;0.45;;;;;;;;;;2101827;28;20833;-64
2023/06/02 04:59:45;;;;;;;3.50;0.50;;;;;;;;;;2101260;28;20032;-63
2023/06/02 05:01:04;;;;;;;2.42;0.43;;;;;;;;;;2103342;28;20028;-63
2023/06/02 05:02:23;;;;;;;2.15;0.43;;;;;;;;;;2102343;28;20031;-63
2023/06/02 05:03:42;;;;;;;2.08;0.35;;;;;;;;;;2103038;28;20040;-65
2023/06/02 05:05:02;;;;;;;1.00;0.10;;;;;;;;;;2104028;28;20041;-63
2023/06/02 05:06:21;;;;;;;1.73;0.30;;;;;;;;;;2105173;28;20036;-63
2023/06/02 05:07:40;;;;;;;2.42;0.63;;;;;;;;;;2101289;28;20445;-63
2023/06/02 05:09:02;;;;;;;1.10;0.50;;;;;;;;;;2102749;28;20039;-63
2023/06/02 05:10:21;;;;;;;0.85;0.28;;;;;;;;;;2102781;28;20024;-63
2023/06/02 05:11:41;;;;;;;0.50;0.50;;;;;;;;;;2102755;28;20040;-63
2023/06/02 05:13:00;;;;;;;0.80;0.40;;;;;;;;;;2103699;28;20033;-63
2023/06/02 05:14:20;;;;;;;4.88;0.70;;;;;;;;;;2099324;28;20036;-63
2023/06/02 05:15:39;;;;;;;1.27;0.25;;;;;;;;;;2101485;28;20024;-63
2023/06/02 05:16:58;;;;;;;1.73;0.38;;;;;;;;;;2101519;28;20032;-63
2023/06/02 05:18:17;;;;;;;1.60;0.22;;;;;;;;;;2105202;28;20020;-63
2023/06/02 05:19:36;;;;;;;1.05;0.40;;;;;;;;;;2101735;28;20051;-63
2023/06/02 05:20:55;;;;;;;0.90;0.40;;;;;;;;;;2104734;28;20050;-64
2023/06/02 05:22:14;;;;;;;1.13;0.77;;;;;;;;;;2099389;28;20020;-63
2023/06/02 05:23:33;;;;;;;1.27;0.47;;;;;;;;;;2101865;28;20389;-63
2023/06/02 05:24:52;;;;;;;0.80;0.25;;;;;;;;;;2103277;28;20024;-63
2023/06/02 05:26:11;;;;;;;1.58;0.30;;;;;;;;;;2103115;28;20031;-63
2023/06/02 05:27:30;;;;;;;2.08;0.32;;;;;;;;;;2102726;28;20508;-63
2023/06/02 05:28:50;;;;;;;2.33;0.30;;;;;;;;;;2102020;28;20035;-63
2023/06/02 05:30:09;;;;;;;2.75;0.65;;;;;;;;;;2101647;28;20024;-63
2023/06/02 05:31:28;;;;;;;5.00;0.85;;;;;;;;;;2100774;28;20100;-63
2023/06/02 05:32:47;;;;;;;3.15;0.45;;;;;;;;;;2103140;28;20032;-63
2023/06/02 05:34:06;;;;;;;0.65;0.38;;;;;;;;;;2102362;28;20481;-64
2023/06/02 05:35:25;;;;;;;3.50;0.50;;;;;;;;;;2102771;28;20109;-63
2023/06/02 05:36:44;;;;;;;0.95;0.30;;;;;;;;;;2103720;28;20064;-64
2023/06/02 05:38:04;;;;;;;1.42;0.30;;;;;;;;;;2102167;28;20036;-61
2023/06/02 05:39:23;;;;;;;4.30;0.30;;;;;;;;;;2103481;28;20024;-61
2023/06/02 05:40:43;;;;;;;1.65;0.43;;;;;;;;;;2103005;28;20028;-63
2023/06/02 05:42:02;;;;;;;3.17;0.90;;;;;;;;;;2098410;28;20028;-61
2023/06/02 05:43:21;;;;;;;0.38;0.30;;;;;;;;;;2099186;28;20028;-64
2023/06/02 05:44:40;;;;;;;3.60;0.30;;;;;;;;;;2105306;28;20047;-63
2023/06/02 05:45:59;;;;;;;2.58;0.30;;;;;;;;;;2101473;28;20032;-62
2023/06/02 05:47:18;;;;;;;0.55;0.30;;;;;;;;;;2099637;28;20028;-62
2023/06/02 05:48:38;;;;;;;0.60;0.35;;;;;;;;;;2096400;28;20032;-62
2023/06/02 05:49:57;;;;;;;1.35;0.20;;;;;;;;;;2099346;28;20501;-62
2023/06/02 05:51:16;;;;;;;3.88;0.28;;;;;;;;;;2101967;28;20047;-62
2023/06/02 05:52:35;;;;;;;0.35;0.20;;;;;;;;;;2103843;28;20024;-64
2023/06/02 05:53:54;;;;;;;1.70;0.30;;;;;;;;;;2101710;28;20062;-63
2023/06/02 05:55:13;;;;;;;1.85;0.50;;;;;;;;;;2100865;28;20020;-64
2023/06/02 05:56:32;;;;;;;0.50;0.40;;;;;;;;;;2103691;28;20085;-64
2023/06/02 05:57:52;;;;;;;1.85;0.35;;;;;;;;;;2102389;28;20049;-63
2023/06/02 05:59:11;;;;;;;2.00;0.30;;;;;;;;;;2102895;28;20028;-63
2023/06/02 06:00:30;;;;;;;4.32;0.60;;;;;;;;;;2103487;28;20028;-63
2023/06/02 06:01:49;;;;;;;1.40;0.30;;;;;;;;;;2103100;28;20024;-63
2023/06/02 06:03:08;;;;;;;2.30;0.50;;;;;;;;;;2102628;28;20503;-63
2023/06/02 06:04:27;;;;;;;1.02;0.55;;;;;;;;;;2102400;28;20384;-64
2023/06/02 06:05:48;;;;;;;1.48;0.32;;;;;;;;;;2104247;28;20423;-64
2023/06/02 06:07:08;;;;;;;2.30;0.35;;;;;;;;;;2102974;28;20148;-64
2023/06/02 06:08:27;;;;;;;1.35;0.30;;;;;;;;;;2103261;28;20040;-64
2023/06/02 06:09:46;;;;;;;2.78;0.57;;;;;;;;;;2102854;28;20028;-63
2023/06/02 06:11:05;;;;;;;1.85;0.32;;;;;;;;;;2101180;28;20388;-64
2023/06/02 06:12:24;;;;;;;3.17;0.50;;;;;;;;;;2101623;28;20035;-64
2023/06/02 06:13:42;;;;;;;6.18;0.68;;;;;;;;;;2101223;28;20405;-64
2023/06/02 06:15:02;;;;;;;2.55;0.40;;;;;;;;;;2098580;28;20040;-64
2023/06/02 06:16:21;;;;;;;1.30;0.32;;;;;;;;;;2101473;28;20578;-64
2023/06/02 06:17:50;;;;;;;9.32;0.52;;;;;;;;;;2102327;28;20028;-67
2023/06/02 06:19:10;;;;;;;1.40;0.40;;;;;;;;;;2102508;28;20023;-64
2023/06/02 06:20:29;;;;;;;2.28;0.50;;;;;;;;;;2101771;28;20024;-64
2023/06/02 06:21:48;;;;;;;3.20;0.30;;;;;;;;;;2100995;28;20032;-64
2023/06/02 06:23:07;;;;;;;5.15;0.70;;;;;;;;;;2102627;28;20446;-65
2023/06/02 06:24:26;;;;;;;3.22;0.40;;;;;;;;;;2101437;28;20032;-64
2023/06/02 06:25:45;;;;;;;1.67;0.38;;;;;;;;;;2100757;28;20218;-64
2023/06/02 06:27:04;;;;;;;4.63;0.52;;;;;;;;;;2101967;28;20036;-65
2023/06/02 06:28:23;;;;;;;4.10;0.30;;;;;;;;;;2105046;28;20032;-62
2023/06/02 06:29:42;;;;;;;1.08;0.38;;;;;;;;;;2102407;28;20036;-63
2023/06/02 06:31:00;;;;;;;2.85;0.50;;;;;;;;;;2102712;28;20028;-62
2023/06/02 06:32:19;;;;;;;0.55;0.30;;;;;;;;;;2100735;28;20932;-63
2023/06/02 06:33:38;;;;;;;0.65;0.30;;;;;;;;;;2100389;28;20126;-63
2023/06/02 06:34:58;;;;;;;2.17;0.50;;;;;;;;;;2100795;28;20024;-63
2023/06/02 06:36:16;;;;;;;2.28;0.22;;;;;;;;;;2101549;28;20032;-63
2023/06/02 06:37:35;;;;;;;3.65;0.47;;;;;;;;;;2102224;28;20032;-64
2023/06/02 06:38:55;;;;;;;3.53;0.55;;;;;;;;;;2103412;28;20020;-64
2023/06/02 06:40:15;;;;;;;6.18;0.95;;;;;;;;;;2102231;28;20033;-64
2023/06/02 06:41:40;;;;;;;0.43;0.30;;;;;;;;;;2103312;28;20056;-64
2023/06/02 06:42:59;;;;;;;2.33;0.28;;;;;;;;;;2101875;28;20028;-64
2023/06/02 06:44:18;;;;;;;0.52;0.30;;;;;;;;;;2104328;28;20092;-64
2023/06/02 06:45:37;;;;;;;3.60;0.40;;;;;;;;;;2099843;28;20059;-64
2023/06/02 06:46:55;;;;;;;3.58;0.30;;;;;;;;;;2103384;28;20416;-65
2023/06/02 06:48:14;;;;;;;1.02;0.25;;;;;;;;;;2105962;28;20032;-64
2023/06/02 06:49:33;;;;;;;2.70;0.40;;;;;;;;;;2107330;28;20776;-63
2023/06/02 06:50:53;;;;;;;5.40;0.40;;;;;;;;;;2104007;28;20028;-63
2023/06/02 06:52:12;;;;;;;2.70;0.40;;;;;;;;;;2104379;28;20489;-65
2023/06/02 06:53:32;;;;;;;1.55;0.55;;;;;;;;;;2102879;28;20500;-65
2023/06/02 06:54:50;;;;;;;3.67;0.43;;;;;;;;;;2103957;28;20036;-63
2023/06/02 06:56:09;;;;;;;3.55;0.60;;;;;;;;;;2097438;28;20035;-64
2023/06/02 06:57:28;;;;;;;1.08;0.40;;;;;;;;;;2105194;28;20028;-63
2023/06/02 06:58:47;;;;;;;2.58;0.28;;;;;;;;;;2105784;28;20024;-63
2023/06/02 07:00:07;;;;;;;0.82;0.32;;;;;;;;;;2102968;28;20111;-64
2023/06/02 07:01:26;;;;;;;7.60;0.35;;;;;;;;;;2106747;28;20114;-64
2023/06/02 07:02:48;;;;;;;0.70;0.20;;;;;;;;;;2104238;28;20028;-64
2023/06/02 07:04:06;;;;;;;2.75;0.50;;;;;;;;;;2099132;28;20036;-64
2023/06/02 07:05:25;;;;;;;4.22;0.70;;;;;;;;;;2098273;28;20040;-64
2023/06/02 07:06:44;;;;;;;1.05;0.20;;;;;;;;;;2105661;28;20028;-64
2023/06/02 07:08:03;;;;;;;2.25;0.30;;;;;;;;;;2105487;28;20059;-64
2023/06/02 07:09:23;;;;;;;2.25;0.38;;;;;;;;;;2100252;28;20040;-64
2023/06/02 07:10:42;;;;;;;2.17;0.40;;;;;;;;;;2106254;28;20105;-64
2023/06/02 07:12:01;;;;;;;2.50;0.40;;;;;;;;;;2104816;28;20032;-65
2023/06/02 07:13:20;;;;;;;2.17;0.60;;;;;;;;;;2103181;28;20060;-64
2023/06/02 07:14:39;;;;;;;2.40;0.40;;;;;;;;;;2101325;28;20028;-64
2023/06/02 07:15:58;;;;;;;3.05;0.50;;;;;;;;;;2104331;28;20556;-64
2023/06/02 07:17:17;;;;;;;2.65;0.38;;;;;;;;;;2103863;28;20505;-64
2023/06/02 07:18:36;;;;;;;0.77;0.30;;;;;;;;;;2103357;28;20050;-64
2023/06/02 07:19:55;;;;;;;0.80;0.25;;;;;;;;;;2103309;28;20020;-64
2023/06/02 07:21:14;;;;;;;2.53;0.57;;;;;;;;;;2106067;28;20056;-64
2023/06/02 07:22:33;;;;;;;2.63;0.40;;;;;;;;;;2104429;28;20036;-64
2023/06/02 07:23:52;;;;;;;1.27;0.40;;;;;;;;;;2105046;28;20481;-64
2023/06/02 07:25:11;;;;;;;2.42;0.43;;;;;;;;;;2105315;28;20040;-64
2023/06/02 07:26:29;;;;;;;6.05;1.02;;;;;;;;;;2104527;28;20024;-63
2023/06/02 07:27:48;;;;;;;4.63;0.93;;;;;;;;;;2103060;28;20032;-63
2023/06/02 07:29:07;;;;;;;2.65;0.40;;;;;;;;;;2103485;28;20419;-63
2023/06/02 07:30:26;;;;;;;2.63;0.68;;;;;;;;;;2103060;28;20463;-63
2023/06/02 07:31:45;;;;;;;0.60;0.30;;;;;;;;;;2105119;28;20489;-66
2023/06/02 07:33:04;;;;;;;2.65;0.60;;;;;;;;;;2106159;28;20025;-67
2023/06/02 07:34:23;;;;;;;4.90;0.43;;;;;;;;;;2104769;28;20031;-63
2023/06/02 07:35:42;;;;;;;2.17;0.52;;;;;;;;;;2104123;28;20040;-63
2023/06/02 07:37:02;;;;;;;0.93;0.40;;;;;;;;;;2105251;28;20036;-63
2023/06/02 07:38:21;;;;;;;2.88;0.57;;;;;;;;;;2106071;28;20025;-64
2023/06/02 07:39:40;;;;;;;2.97;0.52;;;;;;;;;;2104442;28;20032;-62
2023/06/02 07:41:00;;;;;;;2.35;0.50;;;;;;;;;;2099336;28;20056;-62
2023/06/02 07:42:21;;;;;;;1.58;0.57;;;;;;;;;;2099385;28;20029;-63
2023/06/02 07:43:40;;;;;;;0.90;0.50;;;;;;;;;;2104276;28;20115;-63
2023/06/02 07:44:59;;;;;;;0.90;0.20;;;;;;;;;;2105487;28;20043;-62
2023/06/02 07:46:18;;;;;;;0.85;0.40;;;;;;;;;;2103882;28;20111;-62
2023/06/02 07:47:37;;;;;;;0.55;0.30;;;;;;;;;;2104802;28;20028;-62
2023/06/02 07:48:57;;;;;;;2.58;0.30;;;;;;;;;;2099025;28;20023;-63
2023/06/02 07:50:18;;;;;;;3.55;0.40;;;;;;;;;;2103190;28;20035;-62
2023/06/02 07:51:38;;;;;;;1.52;0.50;;;;;;;;;;2098847;28;20032;-63
2023/06/02 07:52:57;;;;;;;4.15;0.70;;;;;;;;;;2103810;28;20492;-63
2023/06/02 07:54:16;;;;;;;1.23;0.30;;;;;;;;;;2104830;28;20064;-63
2023/06/02 07:55:35;;;;;;;4.30;0.73;;;;;;;;;;2103888;28;20396;-64
2023/06/02 07:56:54;;;;;;;2.15;0.52;;;;;;;;;;2105004;28;20024;-63